createdAt,value
2022-11-07T00:01:46.437Z,98806.16
2022-11-07T00:04:14.116Z,98806.16
2022-11-07T00:06:41.902Z,98813.19
2022-11-07T00:09:09.429Z,98820.09
2022-11-07T00:11:37.087Z,98817.41
2022-11-07T00:14:04.674Z,98818.19
2022-11-07T00:16:34.163Z,98814.50
2022-11-07T00:19:01.694Z,98820.03
2022-11-07T00:21:29.359Z,98821.41
2022-11-07T00:23:56.926Z,98815.22
2022-11-07T00:26:24.540Z,98816.16
2022-11-07T00:28:52.167Z,98821.16
2022-11-07T00:31:19.988Z,98824.09
2022-11-07T00:33:49.332Z,98827.59
2022-11-07T00:36:21.818Z,98837.31
2022-11-07T00:38:49.682Z,98834.47
2022-11-07T00:41:18.138Z,98812.59
2022-11-07T00:43:46.201Z,98839.75
2022-11-07T00:46:15.437Z,98835.16
2022-11-07T00:48:43.526Z,98837.72
2022-11-07T00:51:14.119Z,98838.44
2022-11-07T00:53:41.867Z,98848.09
2022-11-07T00:56:11.131Z,98847.97
2022-11-07T00:58:39.320Z,98850.91
2022-11-07T01:01:11.331Z,98857.03
2022-11-07T01:03:57.820Z,98861.13
2022-11-07T01:06:28.508Z,98844.63
2022-11-07T01:08:57.109Z,98840.13
2022-11-07T01:11:25.572Z,98840.22
2022-11-07T01:13:56.514Z,98804.38
2022-11-07T01:16:24.442Z,98852.38
2022-11-07T01:18:52.370Z,98846.38
2022-11-07T01:21:20.058Z,98861.31
2022-11-07T01:23:49.153Z,98863.47
2022-11-07T01:26:17.718Z,98856.78
2022-11-07T01:28:46.048Z,98859.34
2022-11-07T01:31:15.854Z,98859.28
2022-11-07T01:33:43.795Z,98855.06
2022-11-07T01:36:13.792Z,98847.84
2022-11-07T01:38:45.358Z,98851.13
2022-11-07T01:41:24.679Z,98845.78
2022-11-07T01:43:56.847Z,98843.94
2022-11-07T01:46:27.473Z,98823.06
2022-11-07T01:48:59.777Z,98832.72
2022-11-07T01:51:29.451Z,98843.03
2022-11-07T01:53:57.202Z,98848.81
2022-11-07T01:56:27.749Z,98847.03
2022-11-07T01:58:56.094Z,98855.84
2022-11-07T02:01:23.924Z,98847.03
2022-11-07T02:03:52.875Z,98848.75
2022-11-07T02:06:26.200Z,98842.63
2022-11-07T02:08:54.144Z,98849.72
2022-11-07T02:11:22.724Z,98846.13
2022-11-07T02:13:51.830Z,98842.69
2022-11-07T02:16:19.543Z,98841.13
2022-11-07T02:18:48.583Z,98833.75
2022-11-07T02:21:23.412Z,98839.00
2022-11-07T02:23:56.436Z,98831.13
2022-11-07T02:26:25.762Z,98828.50
2022-11-07T02:28:54.182Z,98828.44
2022-11-07T02:31:21.832Z,98836.31
2022-11-07T02:33:49.429Z,98832.84
2022-11-07T02:36:19.486Z,98831.91
2022-11-07T02:38:48.844Z,98833.47
2022-11-07T02:41:19.746Z,98828.09
2022-11-07T02:43:51.161Z,98824.53
2022-11-07T02:46:19.091Z,98829.94
2022-11-07T02:48:49.273Z,98823.69
2022-11-07T02:51:17.082Z,98820.25
2022-11-07T02:53:44.967Z,98822.81
2022-11-07T02:56:12.841Z,98819.78
2022-11-07T02:58:40.838Z,98817.38
2022-11-07T03:01:10.088Z,98809.41
2022-11-07T03:03:39.587Z,98819.00
2022-11-07T03:06:08.306Z,98826.91
2022-11-07T03:08:36.369Z,98824.97
2022-11-07T03:11:04.954Z,98826.69
2022-11-07T03:13:32.872Z,98826.56
2022-11-07T03:16:00.494Z,98832.66
2022-11-07T03:18:29.628Z,98824.69
2022-11-07T03:20:57.366Z,98823.78
2022-11-07T03:23:24.945Z,98826.69
2022-11-07T03:25:52.608Z,98822.94
2022-11-07T03:28:20.267Z,98830.97
2022-11-07T03:30:48.277Z,98830.31
2022-11-07T03:33:16.674Z,98826.75
2022-11-07T03:35:45.878Z,98823.84
2022-11-07T03:38:13.500Z,98825.28
2022-11-07T03:40:41.265Z,98831.81
2022-11-07T03:43:08.967Z,98828.69
2022-11-07T03:45:36.650Z,98832.25
2022-11-07T03:48:04.859Z,98827.06
2022-11-07T03:50:32.442Z,98825.72
2022-11-07T03:53:01.311Z,98830.34
2022-11-07T03:55:28.900Z,98823.56
2022-11-07T03:57:56.552Z,98836.38
2022-11-07T04:00:24.638Z,98831.91
2022-11-07T04:02:52.357Z,98825.78
2022-11-07T04:05:20.027Z,98833.63
2022-11-07T04:07:47.730Z,98830.69
2022-11-07T04:10:16.981Z,98829.06
2022-11-07T04:13:02.922Z,98832.47
2022-11-07T04:15:48.069Z,98835.53
2022-11-07T04:18:15.649Z,98839.31
2022-11-07T04:20:43.331Z,98832.28
2022-11-07T04:23:10.878Z,98843.44
2022-11-07T04:25:57.441Z,98845.88
2022-11-07T04:28:25.382Z,98842.16
2022-11-07T04:30:52.935Z,98854.69
2022-11-07T04:33:20.585Z,98844.72
2022-11-07T04:35:48.176Z,98832.69
2022-11-07T04:38:15.765Z,98834.34
2022-11-07T04:40:44.707Z,98829.94
2022-11-07T04:43:12.543Z,98826.44
2022-11-07T04:45:40.596Z,98833.47
2022-11-07T04:48:08.586Z,98830.22
2022-11-07T04:50:36.148Z,98832.13
2022-11-07T04:53:03.826Z,98831.47
2022-11-07T04:55:31.678Z,98824.44
2022-11-07T04:58:00.615Z,98838.25
2022-11-07T05:00:28.176Z,98832.84
2022-11-07T05:02:55.837Z,98828.16
2022-11-07T05:05:23.420Z,98836.53
2022-11-07T05:07:51.085Z,98834.19
2022-11-07T05:10:21.008Z,98835.97
2022-11-07T05:12:48.664Z,98837.31
2022-11-07T05:15:18.174Z,98843.94
2022-11-07T05:17:46.481Z,98846.00
2022-11-07T05:20:27.424Z,98842.44
2022-11-07T05:23:15.400Z,98840.53
2022-11-07T05:25:44.939Z,98838.03
2022-11-07T05:28:12.938Z,98836.47
2022-11-07T05:30:42.877Z,98845.22
2022-11-07T05:33:10.823Z,98838.09
2022-11-07T05:35:38.641Z,98835.63
2022-11-07T05:38:06.463Z,98833.25
2022-11-07T05:40:36.683Z,98832.34
2022-11-07T05:43:06.030Z,98847.06
2022-11-07T05:45:34.755Z,98833.91
2022-11-07T05:48:05.395Z,98830.28
2022-11-07T05:50:33.402Z,98841.66
2022-11-07T05:53:01.139Z,98843.22
2022-11-07T05:55:29.077Z,98842.66
2022-11-07T05:57:56.851Z,98836.47
2022-11-07T06:00:24.585Z,98844.00
2022-11-07T06:02:55.997Z,98853.69
2022-11-07T06:05:25.248Z,98844.50
2022-11-07T06:07:52.844Z,98851.56
2022-11-07T06:10:20.533Z,98851.28
2022-11-07T06:12:50.333Z,98849.06
2022-11-07T06:15:21.469Z,98854.13
2022-11-07T06:17:49.053Z,98847.94
2022-11-07T06:20:16.849Z,98853.84
2022-11-07T06:22:45.833Z,98855.47
2022-11-07T06:25:13.498Z,98856.69
2022-11-07T06:27:41.156Z,98855.63
2022-11-07T06:30:09.740Z,98863.22
2022-11-07T06:32:39.350Z,98859.88
2022-11-07T06:35:07.725Z,98863.22
2022-11-07T06:37:35.324Z,98867.72
2022-11-07T06:40:04.915Z,98878.97
2022-11-07T06:42:32.920Z,98890.06
2022-11-07T06:45:00.718Z,98879.31
2022-11-07T06:47:28.368Z,98880.25
2022-11-07T06:49:58.381Z,98883.03
2022-11-07T06:52:25.980Z,98890.72
2022-11-07T06:54:53.589Z,98891.41
2022-11-07T06:57:22.763Z,98896.75
2022-11-07T06:59:51.828Z,98895.91
2022-11-07T07:02:37.167Z,98901.81
2022-11-07T07:05:08.615Z,98911.44
2022-11-07T07:07:36.281Z,98907.72
2022-11-07T07:10:03.972Z,98909.66
2022-11-07T07:12:32.971Z,98917.19
2022-11-07T07:15:00.750Z,98915.34
2022-11-07T07:17:28.947Z,98918.75
2022-11-07T07:19:56.533Z,98918.91
2022-11-07T07:22:24.092Z,98914.56
2022-11-07T07:24:53.606Z,98915.88
2022-11-07T07:27:21.470Z,98928.09
2022-11-07T07:29:50.523Z,98938.22
2022-11-07T07:32:18.254Z,98934.66
2022-11-07T07:34:45.817Z,98949.25
2022-11-07T07:37:13.421Z,98944.34
2022-11-07T07:39:41.106Z,98950.25
2022-11-07T07:42:08.703Z,98945.06
2022-11-07T07:44:36.267Z,98943.50
2022-11-07T07:47:10.875Z,98956.78
2022-11-07T07:49:39.108Z,98954.38
2022-11-07T07:52:06.894Z,98962.06
2022-11-07T07:54:34.419Z,98951.84
2022-11-07T07:57:02.050Z,98957.44
2022-11-07T07:59:29.671Z,98960.41
2022-11-07T08:01:57.708Z,98959.91
2022-11-07T08:04:26.822Z,98958.69
2022-11-07T08:06:54.381Z,98958.47
2022-11-07T08:09:22.186Z,98960.19
2022-11-07T08:11:52.226Z,98955.59
2022-11-07T08:14:19.852Z,98954.78
2022-11-07T08:16:47.619Z,98961.38
2022-11-07T08:19:15.499Z,98966.66
2022-11-07T08:21:46.326Z,98971.41
2022-11-07T08:24:14.188Z,98961.69
2022-11-07T08:26:41.835Z,98961.22
2022-11-07T08:29:09.450Z,98960.22
2022-11-07T08:31:37.481Z,98964.66
2022-11-07T08:34:05.127Z,98970.78
2022-11-07T08:36:33.084Z,98976.06
2022-11-07T08:39:02.054Z,98966.28
2022-11-07T08:41:29.809Z,98950.06
2022-11-07T08:43:57.681Z,98970.47
2022-11-07T08:46:25.435Z,98978.25
2022-11-07T08:48:53.125Z,98976.75
2022-11-07T08:51:20.762Z,98968.28
2022-11-07T08:53:48.305Z,98973.41
2022-11-07T08:56:17.486Z,98971.91
2022-11-07T08:58:45.243Z,98975.44
2022-11-07T09:01:13.201Z,98973.13
2022-11-07T09:03:53.321Z,98982.66
2022-11-07T09:06:22.835Z,98972.53
2022-11-07T09:08:50.636Z,98978.56
2022-11-07T09:11:19.891Z,98959.00
2022-11-07T09:13:48.043Z,98975.00
2022-11-07T09:16:17.282Z,98967.59
2022-11-07T09:18:45.634Z,98964.25
2022-11-07T09:21:16.546Z,98976.69
2022-11-07T09:23:48.597Z,98984.13
2022-11-07T09:26:16.385Z,98980.13
2022-11-07T09:28:50.001Z,98973.41
2022-11-07T09:31:19.880Z,98972.91
2022-11-07T09:33:47.530Z,98979.88
2022-11-07T09:36:15.216Z,98984.06
2022-11-07T09:38:42.825Z,98989.78
2022-11-07T09:41:17.559Z,98977.16
2022-11-07T09:44:01.217Z,98982.13
2022-11-07T09:46:35.870Z,98985.63
2022-11-07T09:49:10.090Z,98994.16
2022-11-07T09:51:39.772Z,98994.41
2022-11-07T09:54:11.491Z,98995.16
2022-11-07T09:56:42.057Z,99002.63
2022-11-07T09:59:18.318Z,99006.66
2022-11-07T10:01:46.228Z,99003.66
2022-11-07T10:04:24.778Z,99004.44
2022-11-07T10:06:57.337Z,99019.50
2022-11-07T10:09:29.220Z,99020.84
2022-11-07T10:12:03.281Z,99017.19
2022-11-07T10:14:39.089Z,99019.75
2022-11-07T10:17:12.935Z,99025.16
2022-11-07T10:19:49.779Z,99015.41
2022-11-07T10:22:33.623Z,99025.16
2022-11-07T10:25:19.410Z,99028.66
2022-11-07T10:27:48.582Z,99021.97
2022-11-07T10:30:20.041Z,99029.06
2022-11-07T10:32:55.885Z,99035.53
2022-11-07T10:35:27.044Z,99034.09
2022-11-07T10:37:55.916Z,99039.16
2022-11-07T10:40:24.659Z,99040.84
2022-11-07T10:42:52.614Z,99037.94
2022-11-07T10:45:22.368Z,99039.81
2022-11-07T10:47:58.466Z,99030.66
2022-11-07T10:50:26.708Z,99026.06
2022-11-07T10:52:55.552Z,99019.47
2022-11-07T10:55:24.004Z,99016.31
2022-11-07T10:57:54.375Z,99031.91
2022-11-07T11:00:26.080Z,99029.47
2022-11-07T11:02:54.445Z,99027.75
2022-11-07T11:05:25.217Z,99018.47
2022-11-07T11:07:53.452Z,99023.19
2022-11-07T11:10:23.944Z,99022.19
2022-11-07T11:12:51.910Z,99012.63
2022-11-07T11:15:22.170Z,99014.19
2022-11-07T11:18:00.484Z,99019.13
2022-11-07T11:20:32.753Z,99010.63
2022-11-07T11:23:00.885Z,99014.56
2022-11-07T11:25:28.658Z,99014.19
2022-11-07T11:27:58.910Z,99009.09
2022-11-07T11:30:27.237Z,99012.09
2022-11-07T11:33:01.715Z,99002.72
2022-11-07T11:35:41.282Z,98999.97
2022-11-07T11:38:14.020Z,98994.38
2022-11-07T11:40:44.163Z,98994.28
2022-11-07T11:43:20.082Z,98996.19
2022-11-07T11:46:00.180Z,98993.81
2022-11-07T11:48:34.299Z,98989.75
2022-11-07T11:51:05.451Z,98966.19
2022-11-07T11:53:33.505Z,98958.78
2022-11-07T11:56:18.698Z,98977.75
2022-11-07T11:58:50.874Z,98974.06
2022-11-07T12:04:19.632Z,98978.50
2022-11-07T12:06:48.090Z,98978.50
2022-11-07T12:09:25.957Z,98981.16
2022-11-07T12:12:04.310Z,98980.78
2022-11-07T12:14:44.221Z,98977.25
2022-11-07T12:17:14.714Z,98990.34
2022-11-07T12:19:48.473Z,98982.28
2022-11-07T12:22:24.448Z,98982.66
2022-11-07T12:24:56.383Z,98984.16
2022-11-07T12:27:29.155Z,98980.97
2022-11-07T12:30:09.745Z,98973.09
2022-11-07T12:32:48.272Z,98969.59
2022-11-07T12:35:34.707Z,98963.63
2022-11-07T12:38:25.200Z,98961.53
2022-11-07T12:40:57.974Z,98962.09
2022-11-07T12:43:47.765Z,98951.69
2022-11-07T12:46:18.258Z,98960.50
2022-11-07T12:49:01.327Z,98951.69
2022-11-07T12:51:41.339Z,98955.56
2022-11-07T12:54:27.356Z,98962.56
2022-11-07T12:56:55.383Z,98955.84
2022-11-07T12:59:25.271Z,98948.34
2022-11-07T13:01:59.928Z,98951.78
2022-11-07T13:04:36.023Z,98961.25
2022-11-07T13:07:08.944Z,98954.97
2022-11-07T13:09:42.243Z,98957.63
2022-11-07T13:12:15.229Z,98954.34
2022-11-07T13:14:43.704Z,98956.22
2022-11-07T13:17:17.149Z,98950.34
2022-11-07T13:19:46.056Z,98949.22
2022-11-07T13:22:24.863Z,98951.41
2022-11-07T13:24:59.411Z,98942.31
2022-11-07T13:27:35.198Z,98944.31
2022-11-07T13:30:18.603Z,98939.69
2022-11-07T13:32:47.541Z,98944.59
2022-11-07T13:35:26.561Z,98936.09
2022-11-07T13:37:58.978Z,98946.97
2022-11-07T13:40:28.408Z,98947.91
2022-11-07T13:42:59.494Z,98947.63
2022-11-07T13:45:28.796Z,98949.34
2022-11-07T13:48:00.429Z,98961.53
2022-11-07T13:50:36.478Z,98957.84
2022-11-07T13:53:07.693Z,98959.81
2022-11-07T13:55:42.202Z,98967.78
2022-11-07T13:58:13.169Z,98964.06
2022-11-07T14:00:42.530Z,98971.06
2022-11-07T14:03:24.044Z,98972.19
2022-11-07T14:05:52.294Z,98973.13
2022-11-07T14:08:23.312Z,98968.47
2022-11-07T14:10:51.657Z,98975.47
2022-11-07T14:13:24.583Z,98982.19
2022-11-07T14:15:54.240Z,98936.22
2022-11-07T14:18:23.745Z,98981.63
2022-11-07T14:20:53.419Z,98979.59
2022-11-07T14:23:24.472Z,98976.94
2022-11-07T14:25:56.947Z,98972.91
2022-11-07T14:28:24.811Z,98972.06
2022-11-07T14:30:53.316Z,98971.97
2022-11-07T14:33:22.444Z,98980.47
2022-11-07T14:35:51.723Z,98973.88
2022-11-07T14:38:22.427Z,98980.28
2022-11-07T14:40:52.098Z,98969.50
2022-11-07T14:43:22.266Z,98973.47
2022-11-07T14:46:11.918Z,98977.38
2022-11-07T14:48:39.278Z,98980.00
2022-11-07T14:51:07.045Z,98978.88
2022-11-07T14:53:38.587Z,98983.78
2022-11-07T14:56:11.153Z,98983.69
2022-11-07T14:58:38.972Z,98986.78
2022-11-07T15:01:13.783Z,98977.13
2022-11-07T15:03:52.897Z,98977.50
2022-11-07T15:06:23.282Z,98981.00
2022-11-07T15:08:57.814Z,98978.59
2022-11-07T15:11:29.923Z,98978.88
2022-11-07T15:13:58.128Z,98967.25
2022-11-07T15:16:32.542Z,98985.63
2022-11-07T15:19:01.768Z,98978.38
2022-11-07T15:21:31.202Z,98973.25
2022-11-07T15:23:59.246Z,98989.03
2022-11-07T15:26:32.888Z,98991.25
2022-11-07T15:29:14.938Z,98985.38
2022-11-07T15:31:48.340Z,98984.69
2022-11-07T15:34:33.731Z,98990.91
2022-11-07T15:37:10.771Z,98995.03
2022-11-07T15:39:38.667Z,98979.31
2022-11-07T15:42:07.625Z,98984.69
2022-11-07T15:44:35.327Z,98983.06
2022-11-07T15:47:03.379Z,98977.94
2022-11-07T15:49:31.844Z,98979.56
2022-11-07T15:51:59.455Z,98975.22
2022-11-07T15:54:27.268Z,98983.56
2022-11-07T15:56:58.598Z,98982.19
2022-11-07T15:59:30.463Z,98988.97
2022-11-07T16:01:58.175Z,98991.69
2022-11-07T16:04:25.893Z,98986.22
2022-11-07T16:06:53.752Z,98991.34
2022-11-07T16:09:22.511Z,98991.88
2022-11-07T16:11:50.101Z,98992.34
2022-11-07T16:14:42.866Z,98992.59
2022-11-07T16:17:11.072Z,98996.00
2022-11-07T16:19:39.993Z,99003.94
2022-11-07T16:22:07.613Z,99006.81
2022-11-07T16:24:35.247Z,98999.75
2022-11-07T16:27:02.924Z,98994.00
2022-11-07T16:29:30.719Z,98996.88
2022-11-07T16:31:58.851Z,99000.53
2022-11-07T16:34:27.818Z,99001.84
2022-11-07T16:36:55.531Z,99008.28
2022-11-07T16:39:23.794Z,99000.53
2022-11-07T16:41:51.380Z,99004.72
2022-11-07T16:44:25.628Z,99010.94
2022-11-07T16:46:55.543Z,98999.34
2022-11-07T16:49:29.248Z,98998.59
2022-11-07T16:51:56.980Z,98998.59
2022-11-07T16:54:24.661Z,99002.63
2022-11-07T16:56:52.788Z,99004.78
2022-11-07T16:59:22.582Z,98995.31
2022-11-07T17:01:50.864Z,99003.47
2022-11-07T17:04:18.871Z,99000.44
2022-11-07T17:06:48.196Z,98998.81
2022-11-07T17:09:17.149Z,99005.56
2022-11-07T17:11:45.253Z,99009.28
2022-11-07T17:14:12.881Z,99007.09
2022-11-07T17:16:41.589Z,99008.19
2022-11-07T17:19:11.008Z,99011.66
2022-11-07T17:21:40.676Z,99011.25
2022-11-07T17:24:11.023Z,99012.97
2022-11-07T17:26:38.964Z,99019.19
2022-11-07T17:29:07.299Z,99001.66
2022-11-07T17:31:35.012Z,99010.41
2022-11-07T17:34:02.710Z,99010.88
2022-11-07T17:36:36.692Z,99010.19
2022-11-07T17:39:07.951Z,99013.31
2022-11-07T17:41:36.951Z,99003.69
2022-11-07T17:44:04.809Z,99009.97
2022-11-07T17:46:34.186Z,98996.22
2022-11-07T17:49:04.325Z,99004.22
2022-11-07T17:51:31.984Z,99004.69
2022-11-07T17:53:59.992Z,99002.44
2022-11-07T17:56:29.632Z,99005.00
2022-11-07T17:58:59.894Z,99000.09
2022-11-07T18:01:29.972Z,99010.00
2022-11-07T18:03:57.975Z,99010.00
2022-11-07T18:06:26.823Z,99013.19
2022-11-07T18:08:56.196Z,99010.31
2022-11-07T18:11:25.617Z,99000.84
2022-11-07T18:13:54.385Z,98995.31
2022-11-07T18:16:25.080Z,98996.88
2022-11-07T18:18:52.763Z,99001.69
2022-11-07T18:21:20.373Z,99002.38
2022-11-07T18:23:48.063Z,99001.38
2022-11-07T18:26:17.585Z,99002.47
2022-11-07T18:28:45.335Z,99001.22
2022-11-07T18:31:14.639Z,98998.25
2022-11-07T18:33:43.955Z,99006.09
2022-11-07T18:36:12.931Z,99007.59
2022-11-07T18:38:40.598Z,98998.88
2022-11-07T18:41:09.506Z,98984.59
2022-11-07T18:43:37.546Z,98994.94
2022-11-07T18:46:07.319Z,98996.94
2022-11-07T18:48:34.886Z,98995.69
2022-11-07T18:51:04.393Z,98990.25
2022-11-07T18:53:32.063Z,98985.66
2022-11-07T18:56:00.538Z,98984.09
2022-11-07T18:58:29.154Z,98984.31
2022-11-07T19:00:58.965Z,98989.59
2022-11-07T19:03:26.544Z,98994.66
2022-11-07T19:06:00.603Z,98997.66
2022-11-07T19:08:30.634Z,99003.09
2022-11-07T19:10:58.399Z,98996.25
2022-11-07T19:13:26.866Z,99001.75
2022-11-07T19:15:54.879Z,99003.38
2022-11-07T19:18:23.244Z,98998.69
2022-11-07T19:20:54.073Z,99008.97
2022-11-07T19:23:22.260Z,99005.34
2022-11-07T19:25:51.457Z,99005.53
2022-11-07T19:28:19.215Z,99014.25
2022-11-07T19:30:46.810Z,99016.22
2022-11-07T19:33:15.912Z,99013.63
2022-11-07T19:35:44.194Z,99022.59
2022-11-07T19:38:16.356Z,99016.97
2022-11-07T19:40:49.295Z,99019.38
2022-11-07T19:43:18.642Z,99021.38
2022-11-07T19:45:47.928Z,99024.50
2022-11-07T19:48:15.562Z,99020.72
2022-11-07T19:50:43.285Z,99022.25
2022-11-07T19:53:10.894Z,99027.59
2022-11-07T19:55:39.031Z,99026.09
2022-11-07T19:58:06.637Z,99020.81
2022-11-07T20:00:35.674Z,99023.84
2022-11-07T20:03:03.275Z,99018.53
2022-11-07T20:05:34.232Z,99018.97
2022-11-07T20:08:05.171Z,99022.69
2022-11-07T20:10:33.476Z,99017.41
2022-11-07T20:13:01.117Z,99024.31
2022-11-07T20:15:28.828Z,99028.66
2022-11-07T20:17:57.862Z,99032.28
2022-11-07T20:20:25.482Z,99027.88
2022-11-07T20:22:53.092Z,99036.16
2022-11-07T20:25:20.870Z,99024.84
2022-11-07T20:27:48.613Z,99027.88
2022-11-07T20:30:16.323Z,99022.88
2022-11-07T20:32:45.907Z,99027.41
2022-11-07T20:35:14.889Z,99026.34
2022-11-07T20:37:45.140Z,99024.09
2022-11-07T20:40:14.349Z,99012.84
2022-11-07T20:42:42.530Z,99029.38
2022-11-07T20:45:13.322Z,99031.09
2022-11-07T20:47:41.087Z,99026.69
2022-11-07T20:50:09.152Z,99028.38
2022-11-07T20:52:38.184Z,99031.16
2022-11-07T20:55:06.766Z,99017.41
2022-11-07T20:57:34.402Z,99014.38
2022-11-07T21:00:01.965Z,99028.25
2022-11-07T21:02:29.768Z,99024.91
2022-11-07T21:05:16.756Z,99029.38
2022-11-07T21:07:48.237Z,99025.84
2022-11-07T21:10:16.039Z,99027.59
2022-11-07T21:12:43.809Z,99028.59
2022-11-07T21:15:12.332Z,99019.84
2022-11-07T21:17:40.000Z,99020.16
2022-11-07T21:20:10.160Z,99023.06
2022-11-07T21:22:37.830Z,99020.75
2022-11-07T21:25:08.886Z,99007.41
2022-11-07T21:27:37.129Z,99008.72
2022-11-07T21:30:06.900Z,99012.88
2022-11-07T21:32:35.433Z,99008.25
2022-11-07T21:35:03.069Z,99014.63
2022-11-07T21:37:30.686Z,99013.59
2022-11-07T21:39:58.362Z,99013.06
2022-11-07T21:42:27.276Z,99019.13
2022-11-07T21:44:54.882Z,99007.59
2022-11-07T21:47:22.400Z,99005.81
2022-11-07T21:49:49.985Z,99009.13
2022-11-07T21:52:17.727Z,99004.63
2022-11-07T21:54:45.473Z,98995.81
2022-11-07T21:57:13.077Z,99004.50
2022-11-07T21:59:41.979Z,98999.38
2022-11-07T22:02:10.766Z,98994.03
2022-11-07T22:04:38.627Z,98993.53
2022-11-07T22:07:06.226Z,98983.91
2022-11-07T22:09:33.808Z,98982.25
2022-11-07T22:12:01.353Z,98972.66
2022-11-07T22:14:28.969Z,98980.69
2022-11-07T22:16:57.848Z,98977.78
2022-11-07T22:19:26.733Z,98980.34
2022-11-07T22:21:54.278Z,98966.34
2022-11-07T22:24:23.695Z,98962.06
2022-11-07T22:26:53.164Z,98969.38
2022-11-07T22:29:20.977Z,98963.31
2022-11-07T22:31:48.564Z,98969.56
2022-11-07T22:34:17.502Z,98965.22
2022-11-07T22:36:45.094Z,98965.09
2022-11-07T22:39:12.647Z,98965.50
2022-11-07T22:41:40.280Z,98958.38
2022-11-07T22:44:07.887Z,98959.44
2022-11-07T22:46:35.946Z,98955.03
2022-11-07T22:49:03.530Z,98955.16
2022-11-07T22:51:34.535Z,98951.72
2022-11-07T22:54:03.649Z,98943.25
2022-11-07T22:56:31.316Z,98948.69
2022-11-07T22:58:59.120Z,98947.13
2022-11-07T23:01:28.157Z,98943.63
2022-11-07T23:03:56.972Z,98944.06
2022-11-07T23:06:25.207Z,98948.47
2022-11-07T23:08:54.546Z,98935.72
2022-11-07T23:14:17.251Z,98938.66
2022-11-07T23:16:47.668Z,98947.81
2022-11-07T23:19:16.907Z,98939.69
2022-11-07T23:21:44.578Z,98943.09
2022-11-07T23:24:13.957Z,98943.97
2022-11-07T23:26:42.038Z,98949.41
2022-11-07T23:29:12.023Z,98940.88
2022-11-07T23:31:40.192Z,98942.44
2022-11-07T23:34:07.921Z,98939.88
2022-11-07T23:36:35.846Z,98926.81
2022-11-07T23:39:07.327Z,98940.75
2022-11-07T23:41:36.621Z,98939.94
2022-11-07T23:44:06.162Z,98934.69
2022-11-07T23:46:51.143Z,98931.28
2022-11-07T23:49:36.560Z,98929.50
2022-11-07T23:52:04.984Z,98923.38
2022-11-07T23:54:49.444Z,98920.88
2022-11-07T23:57:18.620Z,98928.63
